This is the latest recevied weather packets stored in our database for station/object SR9NCI. If no packets are shown the sender has not sent any weather packets the latest 1 day(s).
| Time | Temp. | Humidity | Pressure | Rain* | Wind** | Luminosity | Snow |
|---|---|---|---|---|---|---|---|
| 1777995389 | 27.78° C | - | 0 hPa | - | 5.36 m/s, 186° | - | - |
| 1777995148 | 26.67° C | - | 0 hPa | - | 6.26 m/s, 172° | - | - |
| 1777994906 | 26.67° C | - | 0 hPa | - | 7.15 m/s, 171° | - | - |
| 1777994665 | 26.67° C | - | 0 hPa | - | 5.81 m/s, 163° | - | - |
| 1777994417 | 26.11° C | - | 0 hPa | - | 8.94 m/s, 165° | - | - |
| 1777994175 | 26.67° C | - | 0 hPa | - | 7.6 m/s, 145° | - | - |
| 1777993933 | 26.67° C | - | 0 hPa | - | 6.71 m/s, 163° | - | - |
| 1777993691 | 26.67° C | - | 0 hPa | - | 8.05 m/s, 171° | - | - |
| 1777993450 | 27.22° C | - | 0 hPa | - | 6.71 m/s, 160° | - | - |
| 1777993209 | 27.22° C | - | 0 hPa | - | 6.26 m/s, 155° | - | - |
| 1777992967 | 27.22° C | - | 0 hPa | - | 8.05 m/s, 180° | - | - |
| 1777992724 | 27.22° C | - | 0 hPa | - | 6.26 m/s, 162° | - | - |
| 1777992483 | 27.78° C | - | 0 hPa | - | 4.47 m/s, 146° | - | - |
| 1777992241 | 27.22° C | - | 0 hPa | - | 4.47 m/s, 135° | - | - |
| 1777991992 | 27.22° C | - | 0 hPa | - | 3.58 m/s, 159° | - | - |
| 1777991749 | 26.67° C | - | 0 hPa | - | 4.47 m/s, 177° | - | - |
| 1777991508 | 26.11° C | - | 0 hPa | - | 4.02 m/s, 177° | - | - |
| 1777991267 | 26.11° C | - | 0 hPa | - | 4.02 m/s, 185° | - | - |
| 1777991026 | 25.56° C | - | 0 hPa | - | 4.02 m/s, 178° | - | - |
| 1777990784 | 25° C | - | 0 hPa | - | 6.71 m/s, 199° | - | - |
| 1777990542 | 25.56° C | - | 0 hPa | - | 7.15 m/s, 191° | - | - |
| 1777990301 | 25.56° C | - | 0 hPa | - | 7.15 m/s, 156° | - | - |
| 1777990060 | 25.56° C | - | 0 hPa | - | 7.6 m/s, 174° | - | - |
| 1777989817 | 26.11° C | - | 0 hPa | - | 4.92 m/s, 162° | - | - |
| 1777989571 | 26.11° C | - | 0 hPa | - | 5.81 m/s, 175° | - | - |
* Rain since midnight (hover to see other rain measurements)
** Current wind speed in m/s (hover to see current wind gust speed)